createdAt,value
2023-05-21T00:01:20.466Z,67.93
2023-05-21T00:02:23.701Z,67.90
2023-05-21T00:04:00.146Z,68.07
2023-05-21T00:05:03.243Z,68.10
2023-05-21T00:06:07.348Z,68.13
2023-05-21T00:07:43.251Z,68.12
2023-05-21T00:08:46.301Z,68.08
2023-05-21T00:09:49.545Z,68.17
2023-05-21T00:11:24.767Z,68.29
2023-05-21T00:12:27.936Z,68.26
2023-05-21T00:13:31.422Z,68.41
2023-05-21T00:15:06.648Z,68.40
2023-05-21T00:16:09.964Z,68.37
2023-05-21T00:17:13.397Z,68.48
2023-05-21T00:18:48.859Z,68.52
2023-05-21T00:19:52.464Z,68.59
2023-05-21T00:20:55.537Z,68.67
2023-05-21T00:22:30.580Z,68.72
2023-05-21T00:23:33.899Z,68.68
2023-05-21T00:24:37.297Z,68.81
2023-05-21T00:26:12.172Z,68.90
2023-05-21T00:27:15.139Z,69.08
2023-05-21T00:28:18.278Z,69.23
2023-05-21T00:29:53.943Z,69.34
2023-05-21T00:30:57.246Z,69.44
2023-05-21T00:32:00.705Z,69.52
2023-05-21T00:33:37.551Z,69.50
2023-05-21T00:34:40.719Z,69.61
2023-05-21T00:35:44.566Z,69.61
2023-05-21T00:37:19.304Z,69.59
2023-05-21T00:38:22.468Z,69.59
2023-05-21T00:39:25.454Z,69.52
2023-05-21T00:41:00.557Z,69.54
2023-05-21T00:42:04.021Z,69.61
2023-05-21T00:43:07.161Z,69.72
2023-05-21T00:44:42.285Z,69.86
2023-05-21T00:45:45.669Z,69.87
2023-05-21T00:46:49.040Z,69.92
2023-05-21T00:48:24.065Z,69.86
2023-05-21T00:49:27.380Z,69.91
2023-05-21T00:50:30.359Z,69.90
2023-05-21T00:52:05.586Z,69.92
2023-05-21T00:53:08.551Z,70.08
2023-05-21T00:54:11.424Z,70.11
2023-05-21T00:55:46.402Z,70.05
2023-05-21T00:56:49.510Z,70.22
2023-05-21T00:57:52.866Z,70.35
2023-05-21T00:59:28.053Z,70.42
2023-05-21T01:01:21.496Z,70.57
2023-05-21T01:02:25.130Z,70.62
2023-05-21T01:04:01.500Z,70.57
2023-05-21T01:05:04.853Z,70.67
2023-05-21T01:06:07.699Z,70.68
2023-05-21T01:07:42.495Z,70.70
2023-05-21T01:08:45.358Z,70.84
2023-05-21T01:09:51.133Z,70.74
2023-05-21T01:11:26.359Z,70.77
2023-05-21T01:12:29.509Z,70.78
2023-05-21T01:13:32.616Z,70.85
2023-05-21T01:15:07.653Z,70.85
2023-05-21T01:16:10.666Z,70.75
2023-05-21T01:17:14.079Z,70.80
2023-05-21T01:18:49.588Z,70.91
2023-05-21T01:19:53.985Z,70.98
2023-05-21T01:20:59.916Z,71.08
2023-05-21T01:22:35.262Z,71.17
2023-05-21T01:23:38.252Z,71.17
2023-05-21T01:24:41.276Z,71.12
2023-05-21T01:26:17.033Z,71.28
2023-05-21T01:27:20.171Z,71.19
2023-05-21T01:28:23.270Z,71.19
2023-05-21T01:29:57.998Z,71.14
2023-05-21T01:31:00.754Z,71.18
2023-05-21T01:32:04.265Z,71.25
2023-05-21T01:33:39.825Z,71.19
2023-05-21T01:34:44.279Z,71.20
2023-05-21T01:35:47.148Z,71.48
2023-05-21T01:37:23.056Z,71.51
2023-05-21T01:38:25.883Z,71.54
2023-05-21T01:39:29.137Z,71.45
2023-05-21T01:41:04.163Z,71.50
2023-05-21T01:42:07.444Z,71.57
2023-05-21T01:43:10.356Z,71.64
2023-05-21T01:44:45.313Z,71.53
2023-05-21T01:45:48.316Z,71.63
2023-05-21T01:46:51.905Z,71.56
2023-05-21T01:48:27.232Z,71.62
2023-05-21T01:49:30.334Z,71.68
2023-05-21T01:50:33.536Z,71.62
2023-05-21T01:52:08.736Z,71.79
2023-05-21T01:53:11.842Z,71.76
2023-05-21T01:54:15.170Z,71.77
2023-05-21T01:55:50.178Z,71.72
2023-05-21T01:56:53.284Z,71.76
2023-05-21T01:57:56.625Z,71.79
2023-05-21T01:59:32.259Z,71.92
2023-05-21T02:01:21.419Z,71.89
2023-05-21T02:02:24.977Z,71.89
2023-05-21T02:04:00.926Z,72.02
2023-05-21T02:05:04.635Z,72.04
2023-05-21T02:06:07.728Z,71.97
2023-05-21T02:07:42.887Z,71.98
2023-05-21T02:08:46.161Z,72.07
2023-05-21T02:09:49.282Z,72.13
2023-05-21T02:11:24.595Z,72.07
2023-05-21T02:12:27.710Z,72.04
2023-05-21T02:13:32.684Z,72.04
2023-05-21T02:15:07.903Z,72.21
2023-05-21T02:16:11.018Z,72.21
2023-05-21T02:17:14.457Z,72.32
2023-05-21T02:18:49.790Z,72.26
2023-05-21T02:19:53.107Z,72.36
2023-05-21T02:20:56.034Z,72.38
2023-05-21T02:22:31.065Z,72.35
2023-05-21T02:23:34.362Z,72.48
2023-05-21T02:24:37.489Z,72.62
2023-05-21T02:26:12.685Z,72.58
2023-05-21T02:27:15.794Z,72.53
2023-05-21T02:28:19.120Z,72.71
2023-05-21T02:29:54.345Z,72.79
2023-05-21T02:30:57.497Z,72.62
2023-05-21T02:32:00.752Z,72.76
2023-05-21T02:33:36.023Z,72.88
2023-05-21T02:34:39.464Z,72.89
2023-05-21T02:35:42.984Z,72.98
2023-05-21T02:37:17.974Z,73.01
2023-05-21T02:38:21.330Z,73.10
2023-05-21T02:39:24.613Z,73.10
2023-05-21T02:40:59.702Z,73.02
2023-05-21T02:42:02.965Z,73.00
2023-05-21T02:43:06.234Z,73.13
2023-05-21T02:44:44.486Z,73.05
2023-05-21T02:45:47.826Z,73.42
2023-05-21T02:46:51.372Z,73.23
2023-05-21T02:48:26.025Z,73.13
2023-05-21T02:49:29.213Z,73.03
2023-05-21T02:50:32.158Z,73.14
2023-05-21T02:52:07.185Z,73.23
2023-05-21T02:53:10.496Z,73.24
2023-05-21T02:54:13.897Z,73.28
2023-05-21T02:55:49.024Z,73.35
2023-05-21T02:56:52.128Z,73.53
2023-05-21T02:57:55.388Z,73.55
2023-05-21T02:59:30.605Z,73.49
2023-05-21T03:01:21.062Z,73.70
2023-05-21T03:02:24.867Z,73.71
2023-05-21T03:04:01.254Z,73.80
2023-05-21T03:05:04.092Z,73.71
2023-05-21T03:06:07.380Z,73.77
2023-05-21T03:07:42.656Z,73.86
2023-05-21T03:08:45.842Z,73.84
2023-05-21T03:09:48.811Z,73.91
2023-05-21T03:11:23.871Z,73.97
2023-05-21T03:12:27.102Z,73.90
2023-05-21T03:13:30.673Z,74.00
2023-05-21T03:15:06.330Z,74.10
2023-05-21T03:16:09.520Z,74.05
2023-05-21T03:17:13.245Z,74.08
2023-05-21T03:18:48.997Z,74.04
2023-05-21T03:19:52.545Z,74.04
2023-05-21T03:20:55.774Z,74.11
2023-05-21T03:22:30.826Z,74.13
2023-05-21T03:23:34.172Z,74.16
2023-05-21T03:24:37.504Z,74.41
2023-05-21T03:26:12.566Z,74.68
2023-05-21T03:27:15.558Z,74.80
2023-05-21T03:28:18.570Z,74.74
2023-05-21T03:29:53.812Z,74.80
2023-05-21T03:30:58.730Z,74.92
2023-05-21T03:32:02.197Z,74.96
2023-05-21T03:33:37.908Z,75.05
2023-05-21T03:34:41.426Z,75.22
2023-05-21T03:35:44.857Z,75.09
2023-05-21T03:37:20.042Z,75.41
2023-05-21T03:38:22.942Z,75.41
2023-05-21T03:39:28.984Z,75.42
2023-05-21T03:41:04.073Z,75.41
2023-05-21T03:42:06.941Z,75.70
2023-05-21T03:43:09.820Z,75.67
2023-05-21T03:44:45.072Z,75.81
2023-05-21T03:45:50.342Z,75.79
2023-05-21T03:46:53.623Z,75.80
2023-05-21T03:48:28.920Z,75.96
2023-05-21T03:49:32.078Z,75.93
2023-05-21T03:50:35.475Z,76.03
2023-05-21T03:52:10.523Z,76.22
2023-05-21T03:53:13.808Z,76.30
2023-05-21T03:54:16.978Z,76.37
2023-05-21T03:55:51.887Z,76.36
2023-05-21T03:56:55.572Z,76.44
2023-05-21T03:57:58.485Z,76.39
2023-05-21T03:59:33.296Z,76.42
2023-05-21T04:01:21.334Z,76.50
2023-05-21T04:02:24.517Z,76.57
2023-05-21T04:04:01.121Z,76.67
2023-05-21T04:05:48.793Z,76.64
2023-05-21T04:06:52.231Z,76.73
2023-05-21T04:07:55.787Z,76.66
2023-05-21T04:09:31.373Z,76.82
2023-05-21T04:10:34.775Z,76.96
2023-05-21T04:11:38.320Z,77.02
2023-05-21T04:13:14.012Z,77.01
2023-05-21T04:14:17.524Z,77.00
2023-05-21T04:15:21.003Z,77.11
2023-05-21T04:16:57.592Z,77.26
2023-05-21T04:18:01.120Z,77.16
2023-05-21T04:19:04.392Z,77.16
2023-05-21T04:20:40.543Z,77.27
2023-05-21T04:21:44.166Z,77.17
2023-05-21T04:22:47.623Z,77.33
2023-05-21T04:24:23.332Z,77.24
2023-05-21T04:25:26.844Z,77.26
2023-05-21T04:26:30.298Z,77.27
2023-05-21T04:28:05.936Z,77.25
2023-05-21T04:29:09.675Z,77.22
2023-05-21T04:30:13.380Z,77.35
2023-05-21T04:31:49.287Z,77.24
2023-05-21T04:32:52.929Z,77.22
2023-05-21T04:33:56.436Z,77.20
2023-05-21T04:35:32.212Z,77.28
2023-05-21T04:36:36.779Z,77.27
2023-05-21T04:37:39.946Z,77.32
2023-05-21T04:39:17.195Z,77.41
2023-05-21T04:40:20.598Z,77.46
2023-05-21T04:41:24.216Z,77.58
2023-05-21T04:42:59.460Z,77.63
2023-05-21T04:44:02.878Z,77.53
2023-05-21T04:45:06.394Z,77.45
2023-05-21T04:46:42.022Z,77.57
2023-05-21T04:47:46.278Z,77.50
2023-05-21T04:48:50.125Z,77.53
2023-05-21T04:50:25.890Z,77.50
2023-05-21T04:51:29.334Z,77.43
2023-05-21T04:52:32.732Z,77.42
2023-05-21T04:54:08.304Z,77.41
2023-05-21T04:55:11.950Z,77.53
2023-05-21T04:56:15.770Z,77.55
2023-05-21T04:57:51.335Z,77.46
2023-05-21T04:58:54.646Z,77.41
2023-05-21T04:59:58.079Z,77.26
2023-05-21T05:00:17.776Z,77.26
2023-05-21T05:01:21.479Z,77.16
2023-05-21T05:02:25.471Z,77.19
2023-05-21T05:04:01.363Z,77.31
2023-05-21T05:05:04.995Z,77.26
2023-05-21T05:06:08.550Z,77.13
2023-05-21T05:07:43.951Z,77.20
2023-05-21T05:08:47.068Z,77.18
2023-05-21T05:09:50.389Z,77.22
2023-05-21T05:11:25.903Z,77.24
2023-05-21T05:12:29.336Z,77.15
2023-05-21T05:13:32.548Z,77.14
2023-05-21T05:15:08.258Z,77.20
2023-05-21T05:16:11.581Z,77.22
2023-05-21T05:17:15.199Z,77.32
2023-05-21T05:18:51.080Z,77.43
2023-05-21T05:19:54.521Z,77.38
2023-05-21T05:20:57.775Z,77.41
2023-05-21T05:22:33.088Z,77.38
2023-05-21T05:23:36.185Z,77.38
2023-05-21T05:24:39.471Z,77.38
2023-05-21T05:26:14.659Z,77.35
2023-05-21T05:27:17.725Z,77.38
2023-05-21T05:28:24.775Z,77.36
2023-05-21T05:30:00.037Z,77.38
2023-05-21T05:31:03.591Z,77.25
2023-05-21T05:32:07.408Z,77.20
2023-05-21T05:33:43.302Z,77.20
2023-05-21T05:34:46.607Z,77.33
2023-05-21T05:35:50.801Z,77.27
2023-05-21T05:37:25.840Z,77.27
2023-05-21T05:38:28.965Z,77.22
2023-05-21T05:39:32.128Z,77.13
2023-05-21T05:41:07.292Z,77.27
2023-05-21T05:42:10.256Z,77.31
2023-05-21T05:43:13.784Z,77.20
2023-05-21T05:44:51.689Z,77.17
2023-05-21T05:45:55.039Z,77.06
2023-05-21T05:46:58.634Z,77.16
2023-05-21T05:48:34.158Z,77.04
2023-05-21T05:49:37.868Z,76.75
2023-05-21T05:50:41.351Z,76.76
2023-05-21T05:52:16.826Z,76.73
2023-05-21T05:53:20.213Z,76.71
2023-05-21T05:54:23.533Z,76.79
2023-05-21T05:55:58.355Z,76.70
2023-05-21T05:57:01.714Z,76.62
2023-05-21T05:58:04.989Z,76.82
2023-05-21T05:59:40.206Z,76.71
2023-05-21T06:01:21.518Z,76.40
2023-05-21T06:02:25.097Z,76.44
2023-05-21T06:04:01.334Z,76.45
2023-05-21T06:05:04.824Z,76.55
2023-05-21T06:06:08.328Z,76.31
2023-05-21T06:07:44.342Z,76.31
2023-05-21T06:08:47.806Z,76.31
2023-05-21T06:09:51.185Z,76.37
2023-05-21T06:11:26.634Z,76.28
2023-05-21T06:12:29.934Z,76.39
2023-05-21T06:13:33.318Z,76.33
2023-05-21T06:15:08.155Z,76.42
2023-05-21T06:16:11.225Z,76.38
2023-05-21T06:17:14.875Z,76.49
2023-05-21T06:18:50.586Z,76.45
2023-05-21T06:19:54.466Z,76.35
2023-05-21T06:20:57.744Z,76.14
2023-05-21T06:22:33.290Z,76.15
2023-05-21T06:23:36.532Z,76.12
2023-05-21T06:24:39.967Z,76.24
2023-05-21T06:26:15.729Z,76.15
2023-05-21T06:27:18.783Z,76.10
2023-05-21T06:28:21.766Z,76.15
2023-05-21T06:29:56.975Z,76.27
2023-05-21T06:31:00.537Z,76.32
2023-05-21T06:32:03.779Z,76.27
2023-05-21T06:33:39.416Z,76.40
2023-05-21T06:34:43.613Z,76.23
2023-05-21T06:35:46.778Z,76.19
2023-05-21T06:37:23.779Z,76.28
2023-05-21T06:38:28.221Z,76.32
2023-05-21T06:39:31.545Z,76.30
2023-05-21T06:41:07.076Z,76.35
2023-05-21T06:42:10.028Z,76.33
2023-05-21T06:43:13.288Z,76.48
2023-05-21T06:44:48.686Z,76.35
2023-05-21T06:45:52.258Z,76.34
2023-05-21T06:46:56.003Z,76.42
2023-05-21T06:48:31.174Z,76.42
2023-05-21T06:49:34.402Z,76.63
2023-05-21T06:50:37.622Z,76.28
2023-05-21T06:52:12.654Z,76.07
2023-05-21T06:53:16.088Z,75.85
2023-05-21T06:54:19.298Z,75.88
2023-05-21T06:55:56.766Z,76.04
2023-05-21T06:56:59.831Z,76.02
2023-05-21T06:58:03.110Z,75.86
2023-05-21T06:59:38.573Z,76.06
2023-05-21T07:01:21.177Z,76.02
2023-05-21T07:02:25.428Z,75.96
2023-05-21T07:04:01.743Z,75.72
2023-05-21T07:05:05.037Z,75.75
2023-05-21T07:06:08.135Z,75.75
2023-05-21T07:07:43.486Z,75.33
2023-05-21T07:08:46.800Z,75.44
2023-05-21T07:09:50.161Z,75.36
2023-05-21T07:11:25.633Z,75.46
2023-05-21T07:12:29.352Z,75.19
2023-05-21T07:13:32.636Z,75.12
2023-05-21T07:15:08.206Z,74.96
2023-05-21T07:16:11.595Z,74.98
2023-05-21T07:17:15.405Z,74.92
2023-05-21T07:18:50.954Z,74.87
2023-05-21T07:19:54.629Z,75.14
2023-05-21T07:20:57.852Z,75.07
2023-05-21T07:22:34.386Z,74.95
2023-05-21T07:23:37.757Z,74.92
2023-05-21T07:24:40.698Z,74.94
2023-05-21T07:26:16.494Z,74.80
2023-05-21T07:27:31.648Z,74.56
2023-05-21T07:28:35.091Z,74.61
2023-05-21T07:30:10.680Z,74.36
2023-05-21T07:31:14.326Z,74.31
2023-05-21T07:32:18.110Z,74.29
2023-05-21T07:33:53.763Z,73.85
2023-05-21T07:35:00.026Z,73.65
2023-05-21T07:36:03.503Z,73.43
2023-05-21T07:37:38.617Z,73.04
2023-05-21T07:38:41.993Z,72.96
2023-05-21T07:39:45.242Z,72.68
2023-05-21T07:41:24.206Z,72.37
2023-05-21T07:42:27.582Z,72.13
2023-05-21T07:43:30.939Z,71.27
2023-05-21T07:45:06.686Z,70.80
2023-05-21T07:46:09.966Z,70.53
2023-05-21T07:47:13.544Z,70.68
2023-05-21T07:48:49.276Z,70.71
2023-05-21T07:49:52.632Z,70.68
2023-05-21T07:50:55.890Z,70.87
2023-05-21T07:52:31.409Z,70.72
2023-05-21T07:53:35.182Z,69.69
2023-05-21T07:54:41.381Z,69.77
2023-05-21T07:56:16.945Z,68.74
2023-05-21T07:57:20.119Z,68.62
2023-05-21T07:58:23.228Z,68.72
2023-05-21T07:59:58.498Z,68.64
2023-05-21T08:00:17.716Z,68.64
2023-05-21T08:01:21.109Z,68.42
2023-05-21T08:02:24.893Z,68.14
2023-05-21T08:04:01.711Z,68.10
2023-05-21T08:05:06.255Z,67.86
2023-05-21T08:06:09.992Z,68.31
2023-05-21T08:07:45.392Z,68.12
2023-05-21T08:08:48.518Z,67.45
2023-05-21T08:09:51.706Z,67.67
2023-05-21T08:11:29.060Z,67.56
2023-05-21T08:12:32.353Z,67.20
2023-05-21T08:13:35.391Z,67.63
2023-05-21T08:15:10.572Z,66.88
2023-05-21T08:16:13.735Z,66.96
2023-05-21T08:17:17.453Z,66.74
2023-05-21T08:18:52.979Z,66.20
2023-05-21T08:19:56.766Z,66.73
2023-05-21T08:21:00.033Z,66.37
2023-05-21T08:22:35.395Z,66.65
2023-05-21T08:23:38.613Z,66.94
2023-05-21T08:24:41.739Z,66.12
2023-05-21T08:26:17.688Z,66.67
2023-05-21T08:27:20.816Z,66.63
2023-05-21T08:28:24.036Z,66.54
2023-05-21T08:29:59.177Z,66.64
2023-05-21T08:31:02.431Z,66.21
2023-05-21T08:32:06.145Z,66.70
2023-05-21T08:33:41.666Z,65.51
2023-05-21T08:34:45.018Z,66.07
2023-05-21T08:35:48.509Z,65.76
2023-05-21T08:37:24.212Z,65.11
2023-05-21T08:38:28.765Z,65.84
2023-05-21T08:39:33.496Z,67.13
2023-05-21T08:41:08.756Z,65.21
2023-05-21T08:42:13.167Z,64.52
2023-05-21T08:43:34.174Z,64.55
2023-05-21T08:45:13.370Z,64.63
2023-05-21T08:46:17.144Z,64.96
2023-05-21T08:47:20.878Z,64.37
2023-05-21T08:48:56.374Z,64.91
2023-05-21T08:49:59.544Z,64.36
2023-05-21T08:51:02.982Z,64.75
2023-05-21T08:52:38.289Z,64.75
2023-05-21T08:53:41.576Z,64.86
2023-05-21T08:54:44.722Z,64.78
2023-05-21T08:56:20.050Z,64.41
2023-05-21T08:57:23.283Z,64.52
2023-05-21T08:58:26.597Z,64.48
2023-05-21T09:00:01.568Z,64.01
2023-05-21T09:00:18.132Z,64.01
2023-05-21T09:01:23.420Z,63.74
2023-05-21T09:02:28.688Z,63.85
2023-05-21T09:04:20.971Z,63.92
2023-05-21T09:05:25.593Z,63.82
2023-05-21T09:06:29.026Z,63.90
2023-05-21T09:08:04.452Z,63.66
2023-05-21T09:09:07.874Z,63.92
2023-05-21T09:10:11.668Z,63.79
2023-05-21T09:11:47.004Z,63.42
2023-05-21T09:12:50.095Z,63.52
2023-05-21T09:13:53.687Z,63.93
2023-05-21T09:15:29.421Z,63.91
2023-05-21T09:16:32.917Z,63.86
2023-05-21T09:17:36.472Z,63.71
2023-05-21T09:19:11.835Z,64.05
2023-05-21T09:20:16.041Z,64.31
2023-05-21T09:21:19.246Z,63.62
2023-05-21T09:22:54.926Z,63.74
2023-05-21T09:23:58.196Z,63.52
2023-05-21T09:25:01.504Z,63.68
2023-05-21T09:26:36.998Z,62.92
2023-05-21T09:27:40.097Z,63.00
2023-05-21T09:28:43.490Z,63.40
2023-05-21T09:30:18.721Z,63.49
2023-05-21T09:31:28.843Z,63.38
2023-05-21T09:32:32.583Z,63.05
2023-05-21T09:34:08.026Z,62.81
2023-05-21T09:35:11.666Z,62.44
2023-05-21T09:36:16.871Z,61.88
2023-05-21T09:38:07.523Z,61.19
2023-05-21T09:39:10.968Z,61.65
2023-05-21T09:40:14.643Z,62.07
2023-05-21T09:41:50.196Z,61.97
2023-05-21T09:42:53.706Z,61.57
2023-05-21T09:43:57.218Z,61.34
2023-05-21T09:45:32.896Z,60.95
2023-05-21T09:46:38.556Z,61.24
2023-05-21T09:47:42.395Z,61.74
2023-05-21T09:49:18.245Z,61.38
2023-05-21T09:50:21.659Z,61.37
2023-05-21T09:51:25.505Z,61.52
2023-05-21T09:53:00.851Z,61.32
2023-05-21T09:54:04.010Z,61.52
2023-05-21T09:55:07.154Z,61.07
2023-05-21T09:56:42.615Z,60.63
2023-05-21T09:57:46.799Z,60.26
2023-05-21T09:58:51.108Z,60.47
2023-05-21T10:00:18.001Z,60.35
2023-05-21T10:01:22.044Z,60.61
2023-05-21T10:02:26.107Z,60.45
2023-05-21T10:04:02.327Z,60.78
2023-05-21T10:05:05.894Z,59.88
2023-05-21T10:06:09.163Z,59.82
2023-05-21T10:07:44.609Z,59.35
2023-05-21T10:08:48.055Z,59.78
2023-05-21T10:09:52.369Z,59.62
2023-05-21T10:11:27.790Z,59.48
2023-05-21T10:12:31.154Z,59.56
2023-05-21T10:13:34.468Z,58.93
2023-05-21T10:15:09.629Z,59.57
2023-05-21T10:16:12.967Z,58.79
2023-05-21T10:17:16.629Z,58.57
2023-05-21T10:18:52.370Z,58.17
2023-05-21T10:19:56.087Z,58.37
2023-05-21T10:20:59.876Z,58.97
2023-05-21T10:22:35.292Z,58.43
2023-05-21T10:23:38.672Z,57.34
2023-05-21T10:24:41.789Z,57.48
2023-05-21T10:26:16.923Z,57.89
2023-05-21T10:27:20.070Z,58.52
2023-05-21T10:28:24.950Z,57.66
2023-05-21T10:30:00.390Z,57.36
2023-05-21T10:31:03.844Z,57.74
2023-05-21T10:32:07.116Z,57.51
2023-05-21T10:33:43.531Z,57.78
2023-05-21T10:34:46.886Z,57.47
2023-05-21T10:35:53.566Z,57.51
2023-05-21T10:37:28.924Z,57.03
2023-05-21T10:38:32.626Z,57.53
2023-05-21T10:39:36.133Z,57.14
2023-05-21T10:41:11.559Z,57.94
2023-05-21T10:42:14.863Z,57.55
2023-05-21T10:43:18.166Z,57.22
2023-05-21T10:44:53.585Z,57.32
2023-05-21T10:45:56.898Z,57.27
2023-05-21T10:47:00.869Z,57.35
2023-05-21T10:48:35.925Z,57.04
2023-05-21T10:49:39.133Z,56.47
2023-05-21T10:50:42.720Z,56.59
2023-05-21T10:52:17.978Z,56.94
2023-05-21T10:53:21.466Z,55.86
2023-05-21T10:54:24.821Z,55.74
2023-05-21T10:55:59.950Z,56.44
2023-05-21T10:57:03.410Z,55.98
2023-05-21T10:58:06.589Z,55.50
2023-05-21T10:59:42.857Z,54.84
2023-05-21T11:01:20.847Z,55.41
2023-05-21T11:02:24.421Z,55.14
2023-05-21T11:04:00.269Z,55.62
2023-05-21T11:05:03.488Z,56.07
2023-05-21T11:06:06.481Z,55.74
2023-05-21T11:07:42.166Z,55.23
2023-05-21T11:08:45.360Z,55.82
2023-05-21T11:09:52.109Z,55.37
2023-05-21T11:11:27.679Z,56.06
2023-05-21T11:12:31.539Z,56.12
2023-05-21T11:13:34.934Z,55.93
2023-05-21T11:15:10.220Z,54.82
2023-05-21T11:16:13.355Z,55.09
2023-05-21T11:17:17.184Z,54.90
2023-05-21T11:18:53.099Z,54.59
2023-05-21T11:19:56.804Z,54.36
2023-05-21T11:21:00.024Z,54.57
2023-05-21T11:22:35.261Z,53.52
2023-05-21T11:23:38.831Z,53.53
2023-05-21T11:24:42.339Z,53.70
2023-05-21T11:26:20.710Z,53.69
2023-05-21T11:27:23.893Z,53.75
2023-05-21T11:28:27.390Z,53.45
2023-05-21T11:30:02.788Z,53.90
2023-05-21T11:31:06.264Z,53.82
2023-05-21T11:32:09.689Z,54.33
2023-05-21T11:33:45.580Z,52.97
2023-05-21T11:34:48.750Z,52.98
2023-05-21T11:35:51.866Z,53.09
2023-05-21T11:37:27.038Z,53.50
2023-05-21T11:38:30.417Z,53.46
2023-05-21T11:39:33.562Z,53.24
2023-05-21T11:41:09.009Z,53.00
2023-05-21T11:42:12.170Z,53.08
2023-05-21T11:43:15.560Z,53.35
2023-05-21T11:44:51.033Z,53.80
2023-05-21T11:45:54.422Z,52.32
2023-05-21T11:46:57.949Z,53.18
2023-05-21T11:48:36.263Z,52.54
2023-05-21T11:49:39.344Z,52.60
2023-05-21T11:50:43.451Z,51.80
2023-05-21T11:52:18.497Z,52.41
2023-05-21T11:53:21.657Z,52.92
2023-05-21T11:54:25.284Z,52.02
2023-05-21T11:56:00.402Z,51.77
2023-05-21T11:57:03.556Z,50.76
2023-05-21T11:58:07.105Z,50.39
2023-05-21T11:59:42.682Z,50.21
2023-05-21T12:01:21.460Z,50.95
2023-05-21T12:02:25.219Z,51.03
2023-05-21T12:04:01.324Z,51.69
2023-05-21T12:05:05.218Z,50.09
2023-05-21T12:06:11.490Z,51.24
2023-05-21T12:07:47.335Z,51.54
2023-05-21T12:08:50.446Z,50.53
2023-05-21T12:09:53.611Z,50.62
2023-05-21T12:11:28.597Z,50.36
2023-05-21T12:12:45.737Z,50.56
2023-05-21T12:13:55.191Z,49.77
2023-05-21T12:15:30.999Z,51.20
2023-05-21T12:16:34.416Z,50.38
2023-05-21T12:17:38.577Z,51.37
2023-05-21T12:19:14.227Z,50.59
2023-05-21T12:20:18.129Z,51.11
2023-05-21T12:21:21.751Z,50.66
2023-05-21T12:22:57.258Z,51.05
2023-05-21T12:24:00.295Z,50.86
2023-05-21T12:25:03.776Z,48.81
2023-05-21T12:26:39.630Z,49.95
2023-05-21T12:27:42.583Z,50.61
2023-05-21T12:28:45.874Z,50.24
2023-05-21T12:30:20.875Z,50.79
2023-05-21T12:31:24.413Z,50.45
2023-05-21T12:32:27.883Z,50.29
2023-05-21T12:34:05.990Z,49.38
2023-05-21T12:35:09.366Z,48.81
2023-05-21T12:36:13.173Z,49.16
2023-05-21T12:37:48.290Z,49.54
2023-05-21T12:38:51.431Z,50.06
2023-05-21T12:39:57.605Z,49.66
2023-05-21T12:41:32.749Z,48.92
2023-05-21T12:42:36.064Z,48.94
2023-05-21T12:43:39.279Z,49.15
2023-05-21T12:45:17.422Z,49.65
2023-05-21T12:46:20.747Z,49.55
2023-05-21T12:47:24.241Z,49.87
2023-05-21T12:48:59.808Z,49.67
2023-05-21T12:50:03.034Z,49.98
2023-05-21T12:51:06.495Z,49.75
2023-05-21T12:52:41.765Z,49.57
2023-05-21T12:53:45.233Z,50.22
2023-05-21T12:54:48.658Z,49.87
2023-05-21T12:56:27.065Z,50.28
2023-05-21T12:57:30.516Z,49.90
2023-05-21T12:58:33.744Z,49.17
2023-05-21T13:00:17.941Z,50.65
2023-05-21T13:01:22.053Z,49.75
2023-05-21T13:02:25.548Z,50.32
2023-05-21T13:04:02.433Z,49.80
2023-05-21T13:05:06.142Z,49.56
2023-05-21T13:06:09.765Z,50.68
2023-05-21T13:07:45.836Z,49.94
2023-05-21T13:08:49.596Z,50.30
2023-05-21T13:09:52.870Z,50.07
2023-05-21T13:11:28.248Z,50.23
2023-05-21T13:12:32.169Z,49.70
2023-05-21T13:13:37.205Z,49.21
2023-05-21T13:15:12.425Z,49.53
2023-05-21T13:16:16.097Z,49.82
2023-05-21T13:17:19.451Z,49.55
2023-05-21T13:18:55.086Z,49.49
2023-05-21T13:19:58.605Z,49.26
2023-05-21T13:21:02.762Z,49.06
2023-05-21T13:22:37.934Z,49.40
2023-05-21T13:23:44.597Z,49.19
2023-05-21T13:24:47.704Z,49.22
2023-05-21T13:26:22.922Z,50.15
2023-05-21T13:27:26.185Z,49.86
2023-05-21T13:28:29.797Z,50.08
2023-05-21T13:30:06.731Z,49.47
2023-05-21T13:31:09.995Z,49.94
2023-05-21T13:32:13.235Z,49.87
2023-05-21T13:33:49.533Z,50.39
2023-05-21T13:34:52.602Z,50.14
2023-05-21T13:35:55.774Z,50.79
2023-05-21T13:37:30.851Z,51.41
2023-05-21T13:38:33.925Z,52.37
2023-05-21T13:39:37.207Z,52.00
2023-05-21T13:41:12.664Z,51.64
2023-05-21T13:42:15.990Z,51.94
2023-05-21T13:43:19.374Z,52.40
2023-05-21T13:44:54.396Z,52.88
2023-05-21T13:45:57.564Z,52.41
2023-05-21T13:47:00.963Z,51.66
2023-05-21T13:48:35.962Z,52.95
2023-05-21T13:49:39.182Z,53.12
2023-05-21T13:50:42.868Z,52.57
2023-05-21T13:52:20.023Z,52.69
2023-05-21T13:53:23.217Z,52.45
2023-05-21T13:54:26.369Z,52.95
2023-05-21T13:56:01.466Z,52.81
2023-05-21T13:57:04.506Z,53.48
2023-05-21T13:58:07.653Z,52.00
2023-05-21T13:59:43.212Z,50.93
2023-05-21T14:01:21.600Z,51.02
2023-05-21T14:02:25.518Z,51.45
2023-05-21T14:04:01.964Z,50.20
2023-05-21T14:05:05.005Z,50.43
2023-05-21T14:06:08.088Z,50.61
2023-05-21T14:07:43.275Z,50.11
2023-05-21T14:08:46.379Z,50.32
2023-05-21T14:09:49.487Z,49.87
2023-05-21T14:11:25.069Z,50.75
2023-05-21T14:12:28.070Z,50.85
2023-05-21T14:13:31.233Z,50.85
2023-05-21T14:15:06.210Z,50.30
2023-05-21T14:16:09.656Z,50.32
2023-05-21T14:17:13.372Z,50.46
2023-05-21T14:18:49.443Z,49.83
2023-05-21T14:19:52.981Z,49.04
2023-05-21T14:20:56.470Z,49.73
2023-05-21T14:22:31.669Z,49.71
2023-05-21T14:23:34.686Z,49.77
2023-05-21T14:24:37.948Z,49.34
2023-05-21T14:26:12.933Z,49.05
2023-05-21T14:27:16.001Z,49.72
2023-05-21T14:28:19.148Z,49.96
2023-05-21T14:29:54.395Z,49.73
2023-05-21T14:30:57.688Z,50.20
2023-05-21T14:32:00.824Z,50.34
2023-05-21T14:33:38.630Z,50.72
2023-05-21T14:34:41.697Z,50.20
2023-05-21T14:35:44.968Z,50.31
2023-05-21T14:37:20.286Z,50.52
2023-05-21T14:38:23.646Z,50.64
2023-05-21T14:39:27.068Z,49.22
2023-05-21T14:41:02.295Z,49.95
2023-05-21T14:42:05.377Z,50.10
2023-05-21T14:43:08.917Z,49.87
2023-05-21T14:44:44.024Z,49.71
2023-05-21T14:46:04.235Z,49.83
2023-05-21T14:47:07.535Z,50.03
2023-05-21T14:48:42.661Z,51.17
2023-05-21T14:49:46.181Z,50.63
2023-05-21T14:50:49.540Z,50.20
2023-05-21T14:52:24.834Z,49.25
2023-05-21T14:53:28.195Z,48.76
2023-05-21T14:54:31.775Z,49.09
2023-05-21T14:56:07.301Z,49.33
2023-05-21T14:57:10.636Z,49.69
2023-05-21T14:58:13.827Z,49.80
2023-05-21T14:59:48.861Z,50.06
2023-05-21T15:00:18.324Z,50.06
2023-05-21T15:01:21.583Z,49.92
2023-05-21T15:02:25.520Z,50.44
2023-05-21T15:04:02.278Z,50.68
2023-05-21T15:05:06.200Z,50.93
2023-05-21T15:06:09.536Z,50.77
2023-05-21T15:07:44.898Z,49.87
2023-05-21T15:08:48.045Z,49.87
2023-05-21T15:09:51.284Z,51.64
2023-05-21T15:11:27.992Z,52.07
2023-05-21T15:12:31.281Z,51.87
2023-05-21T15:13:34.742Z,51.46
2023-05-21T15:15:09.806Z,51.11
2023-05-21T15:16:13.111Z,50.96
2023-05-21T15:17:17.886Z,50.63
2023-05-21T15:18:53.959Z,51.02
2023-05-21T15:19:57.566Z,50.60
2023-05-21T15:21:00.644Z,49.96
2023-05-21T15:22:37.197Z,50.33
2023-05-21T15:24:02.042Z,50.37
2023-05-21T15:25:05.285Z,50.05
2023-05-21T15:26:40.810Z,49.74
2023-05-21T15:27:44.239Z,49.49
2023-05-21T15:28:48.250Z,49.15
2023-05-21T15:30:23.632Z,48.98
2023-05-21T15:31:26.769Z,48.82
2023-05-21T15:32:30.087Z,49.12
2023-05-21T15:34:06.191Z,48.98
2023-05-21T15:35:09.707Z,48.64
2023-05-21T15:36:14.188Z,49.03
2023-05-21T15:37:49.241Z,48.55
2023-05-21T15:38:52.245Z,48.67
2023-05-21T15:39:55.683Z,48.65
2023-05-21T15:41:31.535Z,48.78
2023-05-21T15:42:34.745Z,48.40
2023-05-21T15:43:38.016Z,49.07
2023-05-21T15:45:13.125Z,48.85
2023-05-21T15:46:17.044Z,48.97
2023-05-21T15:47:20.502Z,48.42
2023-05-21T15:48:55.672Z,49.07
2023-05-21T15:49:58.887Z,48.91
2023-05-21T15:51:02.069Z,48.83
2023-05-21T15:52:36.921Z,48.83
2023-05-21T15:53:41.633Z,48.73
2023-05-21T15:54:44.581Z,48.76
2023-05-21T15:56:20.026Z,48.53
2023-05-21T15:57:23.334Z,48.15
2023-05-21T15:58:26.537Z,48.82
2023-05-21T16:00:01.709Z,48.63
2023-05-21T16:00:18.448Z,48.63